Time;durP1;ratioP1;P1;durP2;ratioP2;P2;SDS_P1;SDS_P2;PMS_P1;PMS_P2;Temp;Humidity;BMP_temperature;BMP_pressure;BME280_temperature;BME280_humidity;BME280_pressure;Samples;Min_cycle;Max_cycle;Signal;HPM_P1;HPM_P2
2021/12/18 00:01:18;;;;;;;37.67;30.10;;;8.30;99.90;;;;;;6217672;23;20178;-87
2021/12/18 00:03:47;;;;;;;39.57;29.83;;;8.30;99.90;;;;;;6217249;23;20190;-88
2021/12/18 00:06:14;;;;;;;37.73;30.53;;;8.20;99.90;;;;;;6217933;23;20282;-86
2021/12/18 00:08:44;;;;;;;37.97;31.67;;;8.30;99.90;;;;;;6218156;23;20169;-89
2021/12/18 00:11:15;;;;;;;39.43;30.63;;;8.30;99.90;;;;;;6218270;23;20218;-89
2021/12/18 00:13:42;;;;;;;40.00;31.90;;;8.10;99.90;;;;;;6220739;23;20174;-86
2021/12/18 00:16:10;;;;;;;38.53;30.73;;;8.20;99.90;;;;;;6226430;23;20218;-89
2021/12/18 00:18:37;;;;;;;41.87;33.03;;;8.10;99.90;;;;;;6225169;23;20170;-89
2021/12/18 00:21:13;;;;;;;42.40;32.07;;;8.30;99.90;;;;;;6224694;23;20693;-90
2021/12/18 00:23:41;;;;;;;43.83;32.67;;;8.10;99.90;;;;;;6225351;23;20162;-86
2021/12/18 00:26:12;;;;;;;44.30;33.23;;;8.20;99.90;;;;;;6225908;23;20198;-86
2021/12/18 00:28:39;;;;;;;40.73;31.73;;;8.20;99.90;;;;;;6222743;23;20257;-88
2021/12/18 00:31:06;;;;;;;48.30;34.53;;;8.10;99.90;;;;;;6218039;23;20181;-90
2021/12/18 00:33:36;;;;;;;41.13;32.97;;;8.20;99.90;;;;;;6218075;23;20167;-88
2021/12/18 00:36:03;;;;;;;44.13;33.87;;;8.20;99.90;;;;;;6217556;23;20629;-89
2021/12/18 00:38:38;;;;;;;44.83;32.27;;;8.20;99.90;;;;;;6218448;23;20173;-83
2021/12/18 00:41:27;;;;;;;41.80;32.73;;;8.10;99.90;;;;;;6218215;23;20166;-88
2021/12/18 00:44:13;;;;;;;39.27;31.07;;;8.20;99.90;;;;;;6221742;23;20174;-90
2021/12/18 00:46:43;;;;;;;42.72;33.92;;;8.10;99.90;;;;;;6220439;23;20407;-88
2021/12/18 00:49:14;;;;;;;39.23;31.17;;;8.10;99.90;;;;;;6219572;23;20614;-91
2021/12/18 00:51:42;;;;;;;41.07;31.77;;;8.10;99.90;;;;;;6220098;23;20194;-86
2021/12/18 00:54:15;;;;;;;42.50;33.47;;;8.10;99.90;;;;;;6219456;23;20173;-88
2021/12/18 00:56:43;;;;;;;48.17;33.83;;;8.10;99.90;;;;;;6218000;23;20197;-89
2021/12/18 00:59:14;;;;;;;49.57;32.50;;;8.30;99.90;;;;;;6218929;23;20179;-89
2021/12/18 01:01:41;;;;;;;42.77;32.30;;;8.30;99.90;;;;;;6218680;23;20184;-81
2021/12/18 01:04:14;;;;;;;42.17;33.17;;;8.20;99.90;;;;;;6218730;23;20171;-90
2021/12/18 01:06:44;;;;;;;45.67;34.23;;;8.20;99.90;;;;;;6218853;23;20210;-89
2021/12/18 01:09:12;;;;;;;44.10;33.50;;;8.20;99.90;;;;;;6218831;23;20170;-90
2021/12/18 01:11:45;;;;;;;44.53;34.37;;;8.10;99.90;;;;;;6219173;23;20241;-90
2021/12/18 01:14:31;;;;;;;42.13;32.83;;;8.30;99.90;;;;;;6218774;23;20166;-89
2021/12/18 01:22:48;;;;;;;44.33;34.13;;;8.30;99.90;;;;;;6220086;23;20223;-88
2021/12/18 01:25:19;;;;;;;44.57;33.13;;;8.20;99.90;;;;;;6219973;23;20187;-87
2021/12/18 01:27:46;;;;;;;44.83;34.00;;;8.20;99.90;;;;;;6218252;23;20599;-90
2021/12/18 01:30:15;;;;;;;45.20;35.10;;;8.20;99.90;;;;;;6217292;23;20179;-88
2021/12/18 01:32:50;;;;;;;49.13;35.37;;;8.20;99.90;;;;;;6217822;23;20167;-90
2021/12/18 01:35:21;;;;;;;49.50;35.40;;;8.20;99.90;;;;;;6218397;23;20190;-89
2021/12/18 01:38:05;;;;;;;47.33;36.53;;;8.10;99.90;;;;;;6218217;23;20179;-89
2021/12/18 01:40:33;;;;;;;48.67;35.60;;;8.30;99.90;;;;;;6218086;23;20606;-89
2021/12/18 01:46:19;;;;;;;48.10;34.67;;;8.40;99.90;;;;;;6218198;23;20202;-88
2021/12/18 01:51:58;;;;;;;47.87;35.17;;;8.10;99.90;;;;;;6219986;23;20519;-89
2021/12/18 01:54:26;;;;;;;47.80;35.67;;;8.10;99.90;;;;;;6218505;23;20170;-87
2021/12/18 01:56:55;;;;;;;51.43;36.60;;;8.30;99.90;;;;;;6218161;23;20625;-89
2021/12/18 01:59:34;;;;;;;48.37;35.87;;;8.30;99.90;;;;;;6217815;23;20163;-89
2021/12/18 02:02:05;;;;;;;64.17;38.93;;;8.20;99.90;;;;;;6217193;23;20163;-90
2021/12/18 02:04:34;;;;;;;51.33;37.03;;;8.40;99.90;;;;;;6216966;23;20178;-88
2021/12/18 02:07:02;;;;;;;50.47;37.40;;;8.50;99.90;;;;;;6217308;23;20190;-91
2021/12/18 02:09:44;;;;;;;52.77;38.10;;;8.40;99.90;;;;;;6220115;23;20162;-89
2021/12/18 02:12:19;;;;;;;46.33;35.33;;;8.60;99.90;;;;;;6221784;23;20178;-90
2021/12/18 02:20:36;;;;;;;45.70;33.40;;;8.10;99.90;;;;;;6228955;23;20213;-85
2021/12/18 02:23:04;;;;;;;46.87;33.27;;;8.20;99.90;;;;;;6238023;23;20168;-85
2021/12/18 02:25:33;;;;;;;45.57;34.23;;;8.40;99.90;;;;;;6238046;23;20221;-86
2021/12/18 02:28:01;;;;;;;45.37;33.90;;;8.40;99.90;;;;;;6236537;23;20178;-87
2021/12/18 02:30:30;;;;;;;43.43;32.40;;;8.30;99.90;;;;;;6234535;23;20194;-90
2021/12/18 02:32:59;;;;;;;47.67;34.97;;;8.20;99.90;;;;;;6222828;23;20171;-86
2021/12/18 02:35:32;;;;;;;43.77;32.03;;;8.30;99.90;;;;;;6218882;23;20551;-89
2021/12/18 02:38:09;;;;;;;41.23;31.23;;;8.20;99.90;;;;;;6217388;23;20611;-89
2021/12/18 02:41:01;;;;;;;44.67;32.90;;;8.20;99.90;;;;;;6217603;23;20181;-90
2021/12/18 02:43:32;;;;;;;46.97;32.67;;;8.20;99.90;;;;;;6218276;23;20506;-90
2021/12/18 02:46:00;;;;;;;43.70;31.17;;;8.20;99.90;;;;;;6217549;23;20198;-90
2021/12/18 02:48:28;;;;;;;44.37;33.03;;;8.20;99.90;;;;;;6218863;23;20180;-88
2021/12/18 02:51:05;;;;;;;42.30;31.27;;;8.30;99.90;;;;;;6217964;23;20190;-92
2021/12/18 02:53:32;;;;;;;45.27;32.60;;;8.20;99.90;;;;;;6218675;23;20166;-91
2021/12/18 02:56:04;;;;;;;45.27;31.30;;;8.20;99.90;;;;;;6218309;23;20167;-88
2021/12/18 02:58:37;;;;;;;45.43;32.07;;;8.30;99.90;;;;;;6218824;23;20236;-88
2021/12/18 03:01:12;;;;;;;48.13;32.27;;;8.40;99.90;;;;;;6219537;23;20206;-91
2021/12/18 03:03:41;;;;;;;43.37;32.17;;;8.50;99.90;;;;;;6219480;23;20269;-87
2021/12/18 03:06:26;;;;;;;44.70;32.43;;;8.40;99.90;;;;;;6218998;23;20248;-88
2021/12/18 03:09:13;;;;;;;46.47;32.73;;;8.40;99.90;;;;;;6219055;23;20163;-91
2021/12/18 03:25:41;;;;;;;44.53;30.70;;;8.50;99.90;;;;;;6218745;23;20657;-89
2021/12/18 03:28:09;;;;;;;42.00;30.03;;;8.30;99.90;;;;;;6219833;23;20497;-90
2021/12/18 03:30:38;;;;;;;43.77;30.63;;;8.30;99.90;;;;;;6219220;23;20210;-89
2021/12/18 03:33:11;;;;;;;43.37;29.03;;;8.30;99.90;;;;;;6219340;23;20174;-90
2021/12/18 03:35:44;;;;;;;41.20;29.40;;;8.40;99.90;;;;;;6220167;23;20185;-90
2021/12/18 03:38:15;;;;;;;45.73;30.53;;;8.30;99.90;;;;;;6218903;23;20473;-91
2021/12/18 03:40:43;;;;;;;46.27;30.93;;;8.20;99.90;;;;;;6218981;23;20167;-87
2021/12/18 03:43:13;;;;;;;43.03;29.63;;;8.30;99.90;;;;;;6218512;23;20174;-89
2021/12/18 03:45:41;;;;;;;48.40;35.47;;;8.40;99.90;;;;;;6217701;23;20417;-84
2021/12/18 03:48:10;;;;;;;45.90;30.07;;;8.20;99.90;;;;;;6219318;23;20163;-87
2021/12/18 03:50:39;;;;;;;44.47;30.33;;;8.30;99.90;;;;;;6218992;23;20190;-88
2021/12/18 03:53:06;;;;;;;48.03;32.80;;;8.40;99.90;;;;;;6219432;23;20169;-89
2021/12/18 03:55:36;;;;;;;45.13;31.13;;;8.20;99.90;;;;;;6220456;23;20174;-87
2021/12/18 03:58:04;;;;;;;47.17;31.90;;;8.20;99.90;;;;;;6220137;23;20198;-89
2021/12/18 04:00:32;;;;;;;45.63;29.87;;;8.20;99.90;;;;;;6218538;23;20183;-88
2021/12/18 04:03:00;;;;;;;42.47;30.47;;;8.30;99.90;;;;;;6218544;23;20618;-90
2021/12/18 04:05:30;;;;;;;42.73;29.77;;;8.20;99.90;;;;;;6219747;23;20245;-88
2021/12/18 04:08:09;;;;;;;49.73;31.47;;;8.10;99.90;;;;;;6219608;23;20181;-88
2021/12/18 04:10:44;;;;;;;47.07;30.40;;;8.10;99.90;;;;;;6219023;23;20189;-90
2021/12/18 04:13:12;;;;;;;51.70;30.70;;;8.10;99.90;;;;;;6219735;23;20166;-88
2021/12/18 04:15:47;;;;;;;48.57;30.33;;;8.10;99.90;;;;;;6218167;23;20213;-91
2021/12/18 04:18:16;;;;;;;49.63;31.87;;;8.00;99.90;;;;;;6221945;23;20163;-89
2021/12/18 04:20:49;;;;;;;47.60;31.03;;;8.00;99.90;;;;;;6218154;23;20167;-91
2021/12/18 04:23:17;;;;;;;49.50;31.30;;;8.30;99.90;;;;;;6217836;23;20162;-89
2021/12/18 04:25:48;;;;;;;48.83;31.63;;;8.10;99.90;;;;;;6218091;23;20183;-89
2021/12/18 04:28:15;;;;;;;45.63;30.07;;;8.20;99.90;;;;;;6219787;23;20170;-90
2021/12/18 04:30:44;;;;;;;47.80;30.80;;;8.20;99.90;;;;;;6219948;23;20181;-89
2021/12/18 04:33:14;;;;;;;46.77;30.87;;;8.40;99.90;;;;;;6218325;23;20608;-92
2021/12/18 04:35:42;;;;;;;46.67;30.00;;;8.40;99.90;;;;;;6218775;23;20171;-92
2021/12/18 04:38:12;;;;;;;46.93;30.93;;;8.30;99.90;;;;;;6218159;23;20201;-92
2021/12/18 04:40:43;;;;;;;45.07;29.80;;;8.50;99.90;;;;;;6218538;23;20167;-91
2021/12/18 04:43:14;;;;;;;43.43;29.07;;;8.20;99.90;;;;;;6218591;23;20167;-91
2021/12/18 04:45:47;;;;;;;43.70;28.53;;;8.30;99.90;;;;;;6217965;23;20178;-91
2021/12/18 04:48:15;;;;;;;42.23;27.90;;;8.30;99.90;;;;;;6218584;23;20163;-91
2021/12/18 04:50:42;;;;;;;42.10;27.77;;;8.30;99.90;;;;;;6217854;23;20195;-91
2021/12/18 04:53:10;;;;;;;40.73;27.87;;;8.20;99.90;;;;;;6218169;23;20261;-91
2021/12/18 04:55:37;;;;;;;40.97;27.90;;;8.50;99.90;;;;;;6218098;23;20194;-91
2021/12/18 04:58:07;;;;;;;37.13;26.73;;;8.20;99.90;;;;;;6218023;23;20173;-90
2021/12/18 05:00:39;;;;;;;41.93;28.50;;;8.40;99.90;;;;;;6219904;23;20602;-91
2021/12/18 05:03:12;;;;;;;39.50;27.63;;;8.20;99.90;;;;;;6219298;23;20179;-91
2021/12/18 05:05:40;;;;;;;42.47;27.93;;;8.30;99.90;;;;;;6218716;23;20163;-89
2021/12/18 05:08:09;;;;;;;40.53;28.83;;;8.30;99.90;;;;;;6218424;23;20174;-89
2021/12/18 05:10:37;;;;;;;40.63;28.13;;;8.40;99.90;;;;;;6219155;23;20537;-90
2021/12/18 05:13:04;;;;;;;39.53;27.43;;;8.40;99.90;;;;;;6218147;23;20174;-92
2021/12/18 05:15:32;;;;;;;43.07;28.07;;;8.20;99.90;;;;;;6218241;23;20169;-90
2021/12/18 05:18:03;;;;;;;41.73;28.03;;;8.30;99.90;;;;;;6219061;23;20179;-89
2021/12/18 05:20:31;;;;;;;41.37;26.90;;;8.20;99.90;;;;;;6219098;23;20618;-93
2021/12/18 05:23:00;;;;;;;40.63;27.87;;;8.10;99.90;;;;;;6218656;23;20162;-92
2021/12/18 05:25:40;;;;;;;41.43;27.37;;;8.10;99.90;;;;;;6218477;23;20167;-90
2021/12/18 05:28:08;;;;;;;42.67;27.47;;;8.20;99.90;;;;;;6221276;23;20167;-90
2021/12/18 05:30:36;;;;;;;44.63;26.87;;;8.20;99.90;;;;;;6222809;23;20178;-91
2021/12/18 05:33:12;;;;;;;43.03;27.83;;;8.20;99.90;;;;;;6222754;23;20241;-90
2021/12/18 05:35:40;;;;;;;47.08;34.30;;;8.00;99.90;;;;;;6221704;23;20476;-91
2021/12/18 05:38:06;;;;;;;43.23;28.33;;;8.20;99.90;;;;;;6222470;23;20185;-91
2021/12/18 05:40:37;;;;;;;45.30;26.97;;;8.30;99.90;;;;;;6221793;23;20257;-90
2021/12/18 05:43:05;;;;;;;42.93;28.17;;;8.20;99.90;;;;;;6220565;23;20169;-90
2021/12/18 05:45:32;;;;;;;41.77;27.47;;;8.10;99.90;;;;;;6220577;23;20175;-90
2021/12/18 05:47:59;;;;;;;40.63;26.80;;;8.10;99.90;;;;;;6219999;23;20191;-88
2021/12/18 05:50:35;;;;;;;44.97;27.80;;;8.10;99.90;;;;;;6218710;23;20282;-92
2021/12/18 05:53:04;;;;;;;44.80;27.37;;;8.30;99.90;;;;;;6218109;23;20169;-91
2021/12/18 05:55:31;;;;;;;41.30;27.00;;;8.10;99.90;;;;;;6217934;23;20175;-91
2021/12/18 05:57:58;;;;;;;42.23;26.80;;;8.00;99.90;;;;;;6217835;23;20291;-90
2021/12/18 06:00:25;;;;;;;39.90;25.00;;;8.10;99.90;;;;;;6220190;23;20186;-90
2021/12/18 06:02:54;;;;;;;46.53;26.97;;;8.20;99.90;;;;;;6223426;23;20206;-91
2021/12/18 06:05:21;;;;;;;44.83;27.47;;;8.20;99.90;;;;;;6226540;23;20170;-85
2021/12/18 06:07:57;;;;;;;44.93;26.80;;;8.10;99.90;;;;;;6223444;23;20202;-92
2021/12/18 06:10:28;;;;;;;41.20;26.40;;;8.30;99.90;;;;;;6224539;23;20222;-88
2021/12/18 06:12:59;;;;;;;42.97;26.47;;;8.20;99.90;;;;;;6226464;23;20191;-91
2021/12/18 06:15:27;;;;;;;41.80;24.33;;;8.20;99.90;;;;;;6225169;23;20167;-86
2021/12/18 06:17:56;;;;;;;45.53;27.47;;;8.00;99.90;;;;;;6227285;23;20197;-91
2021/12/18 06:20:24;;;;;;;44.97;25.87;;;8.00;99.90;;;;;;6226398;23;20188;-89
2021/12/18 06:22:55;;;;;;;42.73;25.53;;;8.20;99.90;;;;;;6222730;23;20639;-88
2021/12/18 06:25:28;;;;;;;44.50;26.37;;;8.20;99.90;;;;;;6224202;23;20656;-90
2021/12/18 06:28:00;;;;;;;48.30;27.30;;;8.10;99.90;;;;;;6225302;23;20197;-89
2021/12/18 06:30:29;;;;;;;41.07;25.07;;;8.10;99.90;;;;;;6225392;23;20186;-87
2021/12/18 06:32:59;;;;;;;46.67;26.47;;;8.10;99.90;;;;;;6223341;23;20630;-89
2021/12/18 06:35:26;;;;;;;47.53;26.27;;;8.10;99.90;;;;;;6222402;23;20181;-90
2021/12/18 06:37:55;;;;;;;48.03;26.90;;;8.10;99.90;;;;;;6222992;23;20174;-91
2021/12/18 06:40:23;;;;;;;48.10;27.13;;;8.00;99.90;;;;;;6222773;23;20245;-89
2021/12/18 06:42:50;;;;;;;45.60;27.03;;;8.10;99.90;;;;;;6226422;23;20181;-89
2021/12/18 06:45:18;;;;;;;46.63;26.53;;;8.10;99.90;;;;;;6222798;23;20245;-88
2021/12/18 06:47:46;;;;;;;49.03;26.90;;;8.10;99.90;;;;;;6224574;23;20186;-86
2021/12/18 06:50:13;;;;;;;47.93;26.40;;;7.80;99.90;;;;;;6225735;23;20191;-87
2021/12/18 06:52:40;;;;;;;46.30;25.33;;;7.90;99.90;;;;;;6229006;23;20250;-87
2021/12/18 06:55:11;;;;;;;47.93;27.27;;;8.00;99.90;;;;;;6223198;23;20214;-90
2021/12/18 06:57:37;;;;;;;49.03;27.77;;;7.90;99.90;;;;;;6224214;23;20190;-87
2021/12/18 07:00:07;;;;;;;48.00;26.43;;;7.90;99.90;;;;;;6220749;23;20253;-86
2021/12/18 07:02:40;;;;;;;47.17;25.83;;;8.00;99.90;;;;;;6218898;23;20241;-88
2021/12/18 07:05:10;;;;;;;49.37;26.97;;;7.90;99.90;;;;;;6216105;23;20167;-91
2021/12/18 07:07:44;;;;;;;49.80;26.53;;;7.80;99.90;;;;;;6216223;23;20194;-88
2021/12/18 07:10:15;;;;;;;48.73;27.23;;;8.00;99.90;;;;;;6217516;23;20173;-87
2021/12/18 07:12:43;;;;;;;46.90;26.70;;;8.10;99.90;;;;;;6217516;23;20177;-89
2021/12/18 07:15:16;;;;;;;50.23;26.67;;;8.00;99.90;;;;;;6217153;23;20167;-88
2021/12/18 07:17:49;;;;;;;50.40;26.60;;;8.10;99.90;;;;;;6217626;23;20163;-88
2021/12/18 07:20:17;;;;;;;47.33;25.90;;;8.10;99.90;;;;;;6217790;23;20199;-85
2021/12/18 07:22:44;;;;;;;49.73;26.27;;;8.20;99.90;;;;;;6216928;23;20163;-86
2021/12/18 07:25:14;;;;;;;46.70;25.77;;;8.10;99.90;;;;;;6216153;23;20177;-89
2021/12/18 07:27:43;;;;;;;48.50;25.97;;;8.20;99.90;;;;;;6215627;23;20599;-88
2021/12/18 07:30:16;;;;;;;47.37;26.03;;;8.10;99.90;;;;;;6216857;23;20205;-86
2021/12/18 07:32:44;;;;;;;48.07;25.00;;;8.10;99.90;;;;;;6218019;23;20171;-89
2021/12/18 07:35:14;;;;;;;47.07;25.23;;;7.90;99.90;;;;;;6218022;23;20171;-89
2021/12/18 07:37:44;;;;;;;48.13;26.17;;;8.00;99.90;;;;;;6217579;23;20174;-86
2021/12/18 07:40:15;;;;;;;51.13;27.03;;;8.10;99.90;;;;;;6218410;23;20194;-84
2021/12/18 07:42:46;;;;;;;46.87;24.93;;;8.10;99.90;;;;;;6218765;23;20253;-86
2021/12/18 07:45:14;;;;;;;51.00;25.70;;;8.10;99.90;;;;;;6218574;23;20167;-86
2021/12/18 07:47:41;;;;;;;48.63;26.27;;;8.20;99.90;;;;;;6217773;23;20199;-84
2021/12/18 07:50:17;;;;;;;52.80;25.63;;;8.30;99.90;;;;;;6218832;23;20282;-86
2021/12/18 07:52:47;;;;;;;49.97;25.67;;;8.20;99.90;;;;;;6219751;23;20170;-86
2021/12/18 07:55:18;;;;;;;50.30;25.63;;;8.30;99.90;;;;;;6219034;23;20179;-85
2021/12/18 07:57:51;;;;;;;45.97;23.90;;;8.20;99.90;;;;;;6218530;23;20659;-85
2021/12/18 08:00:19;;;;;;;52.40;24.40;;;8.00;99.90;;;;;;6217802;23;20248;-88
2021/12/18 08:02:47;;;;;;;52.77;25.17;;;8.00;99.90;;;;;;6219535;23;20182;-81
2021/12/18 08:05:16;;;;;;;51.07;25.00;;;7.90;99.90;;;;;;6218772;23;20614;-85
2021/12/18 08:07:45;;;;;;;50.37;26.40;;;8.00;99.90;;;;;;6217992;23;20195;-84
2021/12/18 08:10:19;;;;;;;54.30;25.23;;;7.90;99.90;;;;;;6219058;23;20489;-86
2021/12/18 08:12:48;;;;;;;55.80;25.73;;;7.90;99.90;;;;;;6219098;23;20167;-84
2021/12/18 08:15:16;;;;;;;51.80;25.50;;;7.90;99.90;;;;;;6218593;23;20170;-84
2021/12/18 08:17:45;;;;;;;48.73;24.13;;;7.90;99.90;;;;;;6220185;23;20171;-83
2021/12/18 08:20:13;;;;;;;53.93;26.27;;;7.90;99.90;;;;;;6222173;23;20571;-85
2021/12/18 08:22:43;;;;;;;50.50;26.13;;;7.90;99.90;;;;;;6222085;23;20167;-87
2021/12/18 08:25:10;;;;;;;51.60;26.23;;;8.00;99.90;;;;;;6219700;23;20171;-86
2021/12/18 08:27:39;;;;;;;51.87;26.10;;;7.90;99.90;;;;;;6221133;23;20192;-84
2021/12/18 08:30:08;;;;;;;58.83;26.10;;;8.00;99.90;;;;;;6218145;23;20183;-84
2021/12/18 08:32:35;;;;;;;52.53;26.43;;;8.00;99.90;;;;;;6217842;23;20625;-87
2021/12/18 08:35:02;;;;;;;56.50;26.00;;;8.20;99.90;;;;;;6217936;23;20265;-82
2021/12/18 08:37:32;;;;;;;61.00;31.77;;;8.30;99.90;;;;;;6216958;23;20395;-86
2021/12/18 08:40:00;;;;;;;59.70;29.47;;;8.40;99.90;;;;;;6217513;23;20638;-86
2021/12/18 08:42:26;;;;;;;62.13;29.33;;;8.50;99.90;;;;;;6218292;23;20246;-85
2021/12/18 08:44:55;;;;;;;51.03;25.30;;;8.20;99.90;;;;;;6217833;23;20169;-87
2021/12/18 08:47:23;;;;;;;53.47;26.70;;;8.20;99.90;;;;;;6218606;23;20510;-86
2021/12/18 08:49:53;;;;;;;54.07;27.53;;;8.20;99.90;;;;;;6217421;23;20689;-85
2021/12/18 08:52:21;;;;;;;55.77;26.57;;;8.20;99.90;;;;;;6218549;23;20182;-83
2021/12/18 08:54:54;;;;;;;55.80;26.47;;;8.20;99.90;;;;;;6218010;23;20174;-85
2021/12/18 08:57:27;;;;;;;59.77;26.43;;;8.30;99.90;;;;;;6217868;23;20181;-84
2021/12/18 08:59:57;;;;;;;53.03;25.60;;;8.20;99.90;;;;;;6217710;23;20640;-85
2021/12/18 09:02:25;;;;;;;55.07;26.20;;;8.30;99.90;;;;;;6216704;23;20189;-83
2021/12/18 09:04:58;;;;;;;53.27;25.03;;;8.20;99.90;;;;;;6217490;23;20607;-85
2021/12/18 09:07:31;;;;;;;49.43;24.33;;;8.40;99.90;;;;;;6218113;23;20186;-85
2021/12/18 09:09:59;;;;;;;51.07;24.67;;;8.50;99.90;;;;;;6218872;23;20181;-86
2021/12/18 09:12:28;;;;;;;49.20;24.60;;;8.50;99.90;;;;;;6218317;23;20171;-85
2021/12/18 09:14:57;;;;;;;51.28;28.52;;;8.50;99.90;;;;;;6217479;23;20426;-86
2021/12/18 09:17:26;;;;;;;43.80;21.53;;;8.40;99.90;;;;;;6220068;23;20641;-86
2021/12/18 09:19:53;;;;;;;45.10;22.47;;;8.40;99.90;;;;;;6223816;23;20630;-86
2021/12/18 09:22:20;;;;;;;45.50;19.67;;;8.50;99.90;;;;;;6225598;23;20181;-84
2021/12/18 09:24:49;;;;;;;38.10;18.43;;;8.50;99.90;;;;;;6225473;23;20174;-85
2021/12/18 09:27:19;;;;;;;39.33;19.13;;;8.40;99.90;;;;;;6223137;23;20214;-88
2021/12/18 09:29:46;;;;;;;41.93;19.00;;;8.60;99.90;;;;;;6219035;23;20194;-86
2021/12/18 09:32:16;;;;;;;40.17;19.07;;;8.60;99.90;;;;;;6218526;23;20175;-86
2021/12/18 09:34:44;;;;;;;40.10;19.33;;;8.60;99.90;;;;;;6218264;23;20626;-85
2021/12/18 09:37:12;;;;;;;42.33;19.27;;;8.60;99.90;;;;;;6218197;23;20454;-87
2021/12/18 09:39:40;;;;;;;44.83;20.90;;;8.70;99.90;;;;;;6215760;23;20264;-86
2021/12/18 09:42:07;;;;;;;45.43;21.43;;;8.60;99.90;;;;;;6217051;23;20195;-85
2021/12/18 09:44:37;;;;;;;46.10;21.07;;;8.40;99.90;;;;;;6215796;23;20166;-84
2021/12/18 09:47:05;;;;;;;50.47;20.43;;;8.70;99.90;;;;;;6216220;23;20615;-81
2021/12/18 09:49:34;;;;;;;56.83;25.63;;;8.60;99.90;;;;;;6215913;23;20402;-85
2021/12/18 09:52:03;;;;;;;56.67;22.77;;;8.50;99.90;;;;;;6215368;23;20169;-79
2021/12/18 09:54:31;;;;;;;47.10;21.83;;;8.30;99.90;;;;;;6215430;23;20174;-80
2021/12/18 09:56:58;;;;;;;51.40;21.77;;;8.40;99.90;;;;;;6215957;23;20170;-84
2021/12/18 09:59:25;;;;;;;49.67;20.87;;;8.40;99.90;;;;;;6215264;23;20179;-83
2021/12/18 10:01:52;;;;;;;46.40;19.63;;;8.40;99.90;;;;;;6215132;23;20184;-83
2021/12/18 10:04:29;;;;;;;44.67;19.60;;;8.40;99.90;;;;;;6214819;23;20163;-84
2021/12/18 10:06:58;;;;;;;43.17;19.30;;;8.20;99.90;;;;;;6215440;23;20167;-81
2021/12/18 10:09:37;;;;;;;42.43;19.50;;;8.40;99.90;;;;;;6214606;23;20525;-88
2021/12/18 10:12:14;;;;;;;40.53;18.33;;;8.40;99.90;;;;;;6222808;23;20241;-85
2021/12/18 10:14:45;;;;;;;39.17;17.33;;;8.30;99.90;;;;;;6220916;23;20174;-89
2021/12/18 10:17:24;;;;;;;50.07;22.77;;;8.30;99.90;;;;;;6217358;23;20549;-84
2021/12/18 10:19:53;;;;;;;44.00;19.53;;;8.40;99.90;;;;;;6215505;23;20703;-83
2021/12/18 10:22:23;;;;;;;44.67;18.27;;;8.50;99.90;;;;;;6215569;23;20245;-84
2021/12/18 10:25:03;;;;;;;38.03;17.57;;;8.40;99.90;;;;;;6215470;23;20507;-81
2021/12/18 10:27:30;;;;;;;44.80;23.20;;;8.20;99.90;;;;;;6214037;23;20475;-82
2021/12/18 10:30:15;;;;;;;36.83;18.33;;;8.30;99.90;;;;;;6215731;23;20229;-84
2021/12/18 10:32:56;;;;;;;38.13;17.80;;;8.20;99.90;;;;;;6215609;23;20659;-83
2021/12/18 10:35:37;;;;;;;34.23;16.20;;;8.40;99.90;;;;;;6215285;23;20170;-82
2021/12/18 10:38:06;;;;;;;31.17;15.73;;;8.70;99.90;;;;;;6215362;23;20246;-82
2021/12/18 10:40:46;;;;;;;32.37;15.20;;;8.50;99.90;;;;;;6217237;23;20167;-81
2021/12/18 10:43:14;;;;;;;29.90;14.40;;;8.50;99.90;;;;;;6215872;23;20172;-82
2021/12/18 10:45:41;;;;;;;30.30;14.60;;;8.20;99.90;;;;;;6215723;23;20470;-86
2021/12/18 10:48:13;;;;;;;30.10;14.53;;;8.30;99.90;;;;;;6216277;23;20190;-86
2021/12/18 10:50:45;;;;;;;30.63;13.93;;;8.30;99.90;;;;;;6215582;23;20199;-85
2021/12/18 10:53:18;;;;;;;30.57;14.57;;;8.30;99.90;;;;;;6217760;23;20175;-89
2021/12/18 10:55:49;;;;;;;28.13;14.50;;;8.20;99.90;;;;;;6217216;23;20173;-87
2021/12/18 10:58:20;;;;;;;32.53;14.50;;;8.20;99.90;;;;;;6216468;23;20177;-90
2021/12/18 11:00:51;;;;;;;28.70;14.00;;;8.20;99.90;;;;;;6217695;23;20565;-85
2021/12/18 11:03:25;;;;;;;27.17;13.53;;;8.20;99.90;;;;;;6215480;23;20163;-82
2021/12/18 11:06:13;;;;;;;30.70;14.17;;;8.40;99.90;;;;;;6217879;23;20213;-83
2021/12/18 11:09:04;;;;;;;26.47;13.27;;;8.30;99.90;;;;;;6219324;23;20191;-83
2021/12/18 11:14:20;;;;;;;23.87;14.13;;;8.10;99.90;;;;;;6217274;23;20193;-84
2021/12/18 11:16:49;;;;;;;31.07;15.33;;;8.40;99.90;;;;;;6217814;23;20163;-84
2021/12/18 11:19:18;;;;;;;31.07;14.70;;;8.50;99.90;;;;;;6217975;23;20260;-82
2021/12/18 11:21:47;;;;;;;29.60;14.90;;;8.60;99.90;;;;;;6218564;23;20162;-79
2021/12/18 11:24:17;;;;;;;27.80;14.00;;;8.50;99.90;;;;;;6218509;23;20163;-82
2021/12/18 11:26:50;;;;;;;27.17;13.57;;;8.20;99.90;;;;;;6217819;23;20162;-90
2021/12/18 11:29:27;;;;;;;22.37;11.50;;;8.10;99.90;;;;;;6217775;23;20515;-81
2021/12/18 11:31:55;;;;;;;25.23;12.70;;;8.20;99.90;;;;;;6218114;23;20177;-87
2021/12/18 11:34:23;;;;;;;24.97;13.47;;;8.20;99.90;;;;;;6217412;23;20167;-85
2021/12/18 11:37:00;;;;;;;24.87;12.40;;;8.40;99.90;;;;;;6217561;23;20167;-86
2021/12/18 11:39:31;;;;;;;27.97;13.70;;;8.50;99.90;;;;;;6217507;23;20228;-84
2021/12/18 11:42:01;;;;;;;25.70;13.63;;;8.70;99.90;;;;;;6216380;23;20163;-83
2021/12/18 11:44:37;;;;;;;29.37;14.00;;;8.80;99.90;;;;;;6216617;23;20169;-84
2021/12/18 11:47:25;;;;;;;35.00;16.83;;;8.90;99.90;;;;;;6217038;23;20205;-86
2021/12/18 11:49:57;;;;;;;30.27;15.57;;;8.60;99.90;;;;;;6216826;23;20203;-84
2021/12/18 11:52:26;;;;;;;37.57;17.80;;;8.40;99.90;;;;;;6217500;23;20171;-81
2021/12/18 11:55:00;;;;;;;38.00;18.43;;;8.50;99.90;;;;;;6216767;23;20503;-82
2021/12/18 11:57:42;;;;;;;35.20;17.40;;;8.40;99.90;;;;;;6217362;23;20173;-85
2021/12/18 12:00:25;;;;;;;31.50;16.10;;;8.40;99.90;;;;;;6216319;23;20171;-87
2021/12/18 12:02:55;;;;;;;32.97;17.27;;;8.40;99.90;;;;;;6215503;23;20179;-85
2021/12/18 12:05:34;;;;;;;28.50;16.17;;;8.70;99.90;;;;;;6217170;23;20163;-83
2021/12/18 12:08:37;;;;;;;31.27;16.37;;;8.80;99.90;;;;;;6217020;23;20163;-83
2021/12/18 12:11:20;;;;;;;34.43;16.37;;;8.60;99.90;;;;;;6216809;23;20171;-83
2021/12/18 12:14:02;;;;;;;31.37;16.10;;;8.50;99.90;;;;;;6216843;23;20205;-86
2021/12/18 12:17:01;;;;;;;24.37;13.97;;;8.70;99.90;;;;;;6216855;23;20478;-83
2021/12/18 12:19:59;;;;;;;28.80;14.37;;;8.60;99.90;;;;;;6217190;23;20167;-82
2021/12/18 12:23:00;;;;;;;25.87;13.97;;;8.60;99.90;;;;;;6216806;23;20603;-84
2021/12/18 12:25:37;;;;;;;23.30;13.00;;;8.60;99.90;;;;;;6216380;23;20194;-83
2021/12/18 12:28:09;;;;;;;26.20;13.60;;;8.60;99.90;;;;;;6216075;23;20167;-83
2021/12/18 12:30:43;;;;;;;23.73;12.07;;;8.40;99.90;;;;;;6186659;23;20179;-86
2021/12/18 12:33:20;;;;;;;16.57;10.07;;;8.50;99.90;;;;;;6186876;23;20179;-86
2021/12/18 12:36:12;;;;;;;15.70;9.53;;;8.40;99.90;;;;;;6186713;23;20170;-84
2021/12/18 12:38:56;;;;;;;16.37;9.40;;;8.50;99.90;;;;;;6151238;23;20182;-82
2021/12/18 12:41:33;;;;;;;16.57;9.67;;;8.60;99.90;;;;;;6186454;23;20599;-80
2021/12/18 12:44:11;;;;;;;19.00;10.70;;;8.50;99.90;;;;;;6184637;23;20171;-79
2021/12/18 12:46:40;;;;;;;21.45;13.18;;;8.60;99.90;;;;;;6184735;23;20389;-81
2021/12/18 12:49:10;;;;;;;20.53;12.53;;;8.70;99.90;;;;;;6186097;23;20187;-81
2021/12/18 12:52:03;;;;;;;19.60;11.63;;;8.70;99.90;;;;;;6186489;23;20507;-79
2021/12/18 12:55:06;;;;;;;25.00;10.23;;;8.60;99.90;;;;;;6176657;23;20775;-83
2021/12/18 12:57:41;;;;;;;17.47;10.90;;;8.50;99.90;;;;;;6169993;23;20190;-80
2021/12/18 13:00:39;;;;;;;18.40;10.47;;;8.50;99.90;;;;;;6186053;23;20182;-82
2021/12/18 13:03:21;;;;;;;19.60;10.40;;;8.30;99.90;;;;;;6185278;23;20163;-79
2021/12/18 13:06:09;;;;;;;16.50;9.57;;;8.50;99.90;;;;;;6185747;23;20179;-88
2021/12/18 13:08:38;;;;;;;16.93;9.97;;;8.70;99.90;;;;;;6185294;23;20191;-79
2021/12/18 13:11:06;;;;;;;17.73;11.10;;;8.60;99.90;;;;;;6185513;23;20167;-80
2021/12/18 13:13:34;;;;;;;18.60;10.13;;;8.70;99.90;;;;;;6185355;23;20179;-80
2021/12/18 13:16:06;;;;;;;19.00;11.03;;;8.60;99.90;;;;;;6184579;23;20176;-77
2021/12/18 13:18:37;;;;;;;18.83;11.40;;;8.50;99.90;;;;;;6185212;23;20643;-81
2021/12/18 13:21:06;;;;;;;23.50;12.87;;;8.40;99.90;;;;;;6185477;23;20242;-77
2021/12/18 13:23:46;;;;;;;27.87;13.60;;;8.50;99.90;;;;;;6184235;23;20172;-80
2021/12/18 13:26:16;;;;;;;25.43;13.73;;;8.50;99.90;;;;;;6185162;23;20600;-81
2021/12/18 13:28:51;;;;;;;24.77;13.57;;;8.50;99.90;;;;;;6192240;23;20206;-79
2021/12/18 13:31:22;;;;;;;24.70;14.67;;;8.50;99.90;;;;;;6215301;23;20167;-80
2021/12/18 13:33:59;;;;;;;26.27;14.10;;;8.50;99.90;;;;;;6215974;23;20163;-80
2021/12/18 13:36:41;;;;;;;29.23;14.50;;;8.60;99.90;;;;;;6215144;23;20520;-78